sensor_id;sensor_type;location;lat;lon;timestamp;P1;P2;P0
39955;PMS5003;25631;51.516;-0.470;2024-01-25T00:00:25;19;19;
39955;PMS5003;25631;51.516;-0.470;2024-01-25T00:03:02;22;20;
39955;PMS5003;25631;51.516;-0.470;2024-01-25T00:05:39;22;20;
39955;PMS5003;25631;51.516;-0.470;2024-01-25T00:08:15;21;20;
39955;PMS5003;25631;51.516;-0.470;2024-01-25T00:10:52;22;22;
39955;PMS5003;25631;51.516;-0.470;2024-01-25T00:13:28;21;21;
39955;PMS5003;25631;51.516;-0.470;2024-01-25T00:16:05;27;26;
39955;PMS5003;25631;51.516;-0.470;2024-01-25T00:18:42;27;26;
39955;PMS5003;25631;51.516;-0.470;2024-01-25T00:21:18;30;30;
39955;PMS5003;25631;51.516;-0.470;2024-01-25T00:23:55;29;27;
39955;PMS5003;25631;51.516;-0.470;2024-01-25T00:26:31;27;25;
39955;PMS5003;25631;51.516;-0.470;2024-01-25T00:29:08;28;26;
39955;PMS5003;25631;51.516;-0.470;2024-01-25T00:31:44;26;24;
39955;PMS5003;25631;51.516;-0.470;2024-01-25T00:34:21;28;25;
39955;PMS5003;25631;51.516;-0.470;2024-01-25T00:36:58;29;29;
39955;PMS5003;25631;51.516;-0.470;2024-01-25T00:39:35;29;27;
39955;PMS5003;25631;51.516;-0.470;2024-01-25T00:42:12;30;29;
39955;PMS5003;25631;51.516;-0.470;2024-01-25T00:44:49;30;28;
39955;PMS5003;25631;51.516;-0.470;2024-01-25T00:47:26;33;28;
39955;PMS5003;25631;51.516;-0.470;2024-01-25T00:50:03;31;29;
39955;PMS5003;25631;51.516;-0.470;2024-01-25T00:52:41;28;27;
39955;PMS5003;25631;51.516;-0.470;2024-01-25T00:55:19;25;25;
39955;PMS5003;25631;51.516;-0.470;2024-01-25T00:57:56;26;25;
39955;PMS5003;25631;51.516;-0.470;2024-01-25T01:00:33;26;25;
39955;PMS5003;25631;51.516;-0.470;2024-01-25T01:03:10;28;28;
39955;PMS5003;25631;51.516;-0.470;2024-01-25T01:05:49;33;30;
39955;PMS5003;25631;51.516;-0.470;2024-01-25T01:08:26;28;27;
39955;PMS5003;25631;51.516;-0.470;2024-01-25T01:11:03;23;23;
39955;PMS5003;25631;51.516;-0.470;2024-01-25T01:13:40;25;25;
39955;PMS5003;25631;51.516;-0.470;2024-01-25T01:16:16;29;29;
39955;PMS5003;25631;51.516;-0.470;2024-01-25T01:18:53;25;22;
39955;PMS5003;25631;51.516;-0.470;2024-01-25T01:21:29;26;24;
39955;PMS5003;25631;51.516;-0.470;2024-01-25T01:24:06;30;29;
39955;PMS5003;25631;51.516;-0.470;2024-01-25T01:26:42;33;32;
39955;PMS5003;25631;51.516;-0.470;2024-01-25T01:29:19;32;31;
39955;PMS5003;25631;51.516;-0.470;2024-01-25T01:31:55;25;24;
39955;PMS5003;25631;51.516;-0.470;2024-01-25T01:34:31;25;24;
39955;PMS5003;25631;51.516;-0.470;2024-01-25T01:37:08;27;25;
39955;PMS5003;25631;51.516;-0.470;2024-01-25T01:39:44;27;26;
39955;PMS5003;25631;51.516;-0.470;2024-01-25T01:42:20;32;31;
39955;PMS5003;25631;51.516;-0.470;2024-01-25T01:44:57;41;40;
39955;PMS5003;25631;51.516;-0.470;2024-01-25T01:47:34;38;37;
39955;PMS5003;25631;51.516;-0.470;2024-01-25T01:50:10;34;33;
39955;PMS5003;25631;51.516;-0.470;2024-01-25T01:52:47;34;30;
39955;PMS5003;25631;51.516;-0.470;2024-01-25T01:55:25;32;28;
39955;PMS5003;25631;51.516;-0.470;2024-01-25T01:58:03;34;32;
39955;PMS5003;25631;51.516;-0.470;2024-01-25T02:00:39;35;34;
39955;PMS5003;25631;51.516;-0.470;2024-01-25T02:03:18;37;36;
39955;PMS5003;25631;51.516;-0.470;2024-01-25T02:05:55;36;36;
39955;PMS5003;25631;51.516;-0.470;2024-01-25T02:08:32;38;36;
39955;PMS5003;25631;51.516;-0.470;2024-01-25T02:11:11;26;25;
39955;PMS5003;25631;51.516;-0.470;2024-01-25T02:13:47;30;28;
39955;PMS5003;25631;51.516;-0.470;2024-01-25T02:16:24;30;28;
39955;PMS5003;25631;51.516;-0.470;2024-01-25T02:19:00;28;28;
39955;PMS5003;25631;51.516;-0.470;2024-01-25T02:21:36;29;28;
39955;PMS5003;25631;51.516;-0.470;2024-01-25T02:24:13;33;32;
39955;PMS5003;25631;51.516;-0.470;2024-01-25T02:26:49;33;31;
39955;PMS5003;25631;51.516;-0.470;2024-01-25T02:29:25;35;32;
39955;PMS5003;25631;51.516;-0.470;2024-01-25T02:32:02;39;34;
39955;PMS5003;25631;51.516;-0.470;2024-01-25T02:34:38;33;31;
39955;PMS5003;25631;51.516;-0.470;2024-01-25T02:37:15;34;33;
39955;PMS5003;25631;51.516;-0.470;2024-01-25T02:39:51;34;33;
39955;PMS5003;25631;51.516;-0.470;2024-01-25T02:42:28;37;33;
39955;PMS5003;25631;51.516;-0.470;2024-01-25T02:45:05;28;27;
39955;PMS5003;25631;51.516;-0.470;2024-01-25T02:47:42;25;25;
39955;PMS5003;25631;51.516;-0.470;2024-01-25T02:50:18;24;23;
39955;PMS5003;25631;51.516;-0.470;2024-01-25T02:52:56;20;19;
39955;PMS5003;25631;51.516;-0.470;2024-01-25T02:55:34;21;21;
39955;PMS5003;25631;51.516;-0.470;2024-01-25T02:58:10;21;20;
39955;PMS5003;25631;51.516;-0.470;2024-01-25T03:00:46;27;25;
39955;PMS5003;25631;51.516;-0.470;2024-01-25T03:03:23;27;25;
39955;PMS5003;25631;51.516;-0.470;2024-01-25T03:05:59;27;27;
39955;PMS5003;25631;51.516;-0.470;2024-01-25T03:08:36;29;28;
39955;PMS5003;25631;51.516;-0.470;2024-01-25T03:11:12;29;28;
39955;PMS5003;25631;51.516;-0.470;2024-01-25T03:13:48;32;30;
39955;PMS5003;25631;51.516;-0.470;2024-01-25T03:16:25;34;31;
39955;PMS5003;25631;51.516;-0.470;2024-01-25T03:19:01;29;28;
39955;PMS5003;25631;51.516;-0.470;2024-01-25T03:21:38;30;29;
39955;PMS5003;25631;51.516;-0.470;2024-01-25T03:24:14;30;28;
39955;PMS5003;25631;51.516;-0.470;2024-01-25T03:26:51;26;24;
39955;PMS5003;25631;51.516;-0.470;2024-01-25T03:29:27;26;24;
39955;PMS5003;25631;51.516;-0.470;2024-01-25T03:32:04;26;25;
39955;PMS5003;25631;51.516;-0.470;2024-01-25T03:34:41;29;26;
39955;PMS5003;25631;51.516;-0.470;2024-01-25T03:37:17;29;27;
39955;PMS5003;25631;51.516;-0.470;2024-01-25T03:39:54;27;25;
39955;PMS5003;25631;51.516;-0.470;2024-01-25T03:42:30;27;26;
39955;PMS5003;25631;51.516;-0.470;2024-01-25T03:45:07;28;27;
39955;PMS5003;25631;51.516;-0.470;2024-01-25T03:47:43;23;23;
39955;PMS5003;25631;51.516;-0.470;2024-01-25T03:50:20;22;22;
39955;PMS5003;25631;51.516;-0.470;2024-01-25T03:52:56;29;28;
39955;PMS5003;25631;51.516;-0.470;2024-01-25T03:55:33;27;27;
39955;PMS5003;25631;51.516;-0.470;2024-01-25T03:58:09;25;25;
39955;PMS5003;25631;51.516;-0.470;2024-01-25T04:00:45;28;27;
39955;PMS5003;25631;51.516;-0.470;2024-01-25T04:03:22;29;28;
39955;PMS5003;25631;51.516;-0.470;2024-01-25T04:05:58;31;29;
39955;PMS5003;25631;51.516;-0.470;2024-01-25T04:08:35;28;27;
39955;PMS5003;25631;51.516;-0.470;2024-01-25T04:11:11;28;27;
39955;PMS5003;25631;51.516;-0.470;2024-01-25T04:13:48;27;26;
39955;PMS5003;25631;51.516;-0.470;2024-01-25T04:16:25;35;35;
39955;PMS5003;25631;51.516;-0.470;2024-01-25T04:19:01;37;36;
39955;PMS5003;25631;51.516;-0.470;2024-01-25T04:21:38;25;23;
39955;PMS5003;25631;51.516;-0.470;2024-01-25T04:24:14;24;22;
39955;PMS5003;25631;51.516;-0.470;2024-01-25T04:26:51;31;30;
39955;PMS5003;25631;51.516;-0.470;2024-01-25T04:29:28;27;26;
39955;PMS5003;25631;51.516;-0.470;2024-01-25T04:32:04;27;26;
39955;PMS5003;25631;51.516;-0.470;2024-01-25T04:34:41;27;26;
39955;PMS5003;25631;51.516;-0.470;2024-01-25T04:37:20;30;29;
39955;PMS5003;25631;51.516;-0.470;2024-01-25T04:39:56;32;31;
39955;PMS5003;25631;51.516;-0.470;2024-01-25T04:42:32;37;34;
39955;PMS5003;25631;51.516;-0.470;2024-01-25T04:45:09;31;30;
39955;PMS5003;25631;51.516;-0.470;2024-01-25T04:47:46;32;31;
39955;PMS5003;25631;51.516;-0.470;2024-01-25T04:50:22;33;32;
39955;PMS5003;25631;51.516;-0.470;2024-01-25T04:53:01;34;31;
39955;PMS5003;25631;51.516;-0.470;2024-01-25T04:55:37;30;29;
39955;PMS5003;25631;51.516;-0.470;2024-01-25T04:58:14;29;28;
39955;PMS5003;25631;51.516;-0.470;2024-01-25T05:00:50;30;29;
39955;PMS5003;25631;51.516;-0.470;2024-01-25T05:03:27;33;32;
39955;PMS5003;25631;51.516;-0.470;2024-01-25T05:06:03;35;33;
39955;PMS5003;25631;51.516;-0.470;2024-01-25T05:08:41;34;30;
39955;PMS5003;25631;51.516;-0.470;2024-01-25T05:11:18;34;29;
39955;PMS5003;25631;51.516;-0.470;2024-01-25T05:13:55;30;26;
39955;PMS5003;25631;51.516;-0.470;2024-01-25T05:16:31;35;33;
39955;PMS5003;25631;51.516;-0.470;2024-01-25T05:19:08;34;33;
39955;PMS5003;25631;51.516;-0.470;2024-01-25T05:21:45;37;35;
39955;PMS5003;25631;51.516;-0.470;2024-01-25T05:24:21;37;35;
39955;PMS5003;25631;51.516;-0.470;2024-01-25T05:26:58;32;32;
39955;PMS5003;25631;51.516;-0.470;2024-01-25T05:29:34;37;37;
39955;PMS5003;25631;51.516;-0.470;2024-01-25T05:32:10;37;35;
39955;PMS5003;25631;51.516;-0.470;2024-01-25T05:34:47;41;38;
39955;PMS5003;25631;51.516;-0.470;2024-01-25T05:37:24;40;39;
39955;PMS5003;25631;51.516;-0.470;2024-01-25T05:40:00;38;36;
39955;PMS5003;25631;51.516;-0.470;2024-01-25T05:42:36;36;33;
39955;PMS5003;25631;51.516;-0.470;2024-01-25T05:45:13;36;33;
39955;PMS5003;25631;51.516;-0.470;2024-01-25T05:47:50;34;33;
39955;PMS5003;25631;51.516;-0.470;2024-01-25T05:50:26;37;35;
39955;PMS5003;25631;51.516;-0.470;2024-01-25T05:53:03;37;34;
39955;PMS5003;25631;51.516;-0.470;2024-01-25T05:55:40;31;29;
39955;PMS5003;25631;51.516;-0.470;2024-01-25T05:58:16;32;31;
39955;PMS5003;25631;51.516;-0.470;2024-01-25T06:00:53;30;30;
39955;PMS5003;25631;51.516;-0.470;2024-01-25T06:03:30;36;33;
39955;PMS5003;25631;51.516;-0.470;2024-01-25T06:06:06;37;35;
39955;PMS5003;25631;51.516;-0.470;2024-01-25T06:08:42;39;37;
39955;PMS5003;25631;51.516;-0.470;2024-01-25T06:11:19;38;37;
39955;PMS5003;25631;51.516;-0.470;2024-01-25T06:13:55;36;35;
39955;PMS5003;25631;51.516;-0.470;2024-01-25T06:16:32;34;32;
39955;PMS5003;25631;51.516;-0.470;2024-01-25T06:19:08;33;32;
39955;PMS5003;25631;51.516;-0.470;2024-01-25T06:21:45;35;35;
39955;PMS5003;25631;51.516;-0.470;2024-01-25T06:24:21;34;33;
39955;PMS5003;25631;51.516;-0.470;2024-01-25T06:26:58;35;33;
39955;PMS5003;25631;51.516;-0.470;2024-01-25T06:29:34;32;29;
39955;PMS5003;25631;51.516;-0.470;2024-01-25T06:32:11;34;31;
39955;PMS5003;25631;51.516;-0.470;2024-01-25T06:34:47;33;30;
39955;PMS5003;25631;51.516;-0.470;2024-01-25T06:37:23;32;30;
39955;PMS5003;25631;51.516;-0.470;2024-01-25T06:40:00;34;33;
39955;PMS5003;25631;51.516;-0.470;2024-01-25T06:42:37;31;29;
39955;PMS5003;25631;51.516;-0.470;2024-01-25T06:45:13;33;30;
39955;PMS5003;25631;51.516;-0.470;2024-01-25T06:47:50;31;30;
39955;PMS5003;25631;51.516;-0.470;2024-01-25T06:50:26;40;37;
39955;PMS5003;25631;51.516;-0.470;2024-01-25T06:53:03;38;38;
39955;PMS5003;25631;51.516;-0.470;2024-01-25T06:55:40;38;37;
39955;PMS5003;25631;51.516;-0.470;2024-01-25T06:58:16;42;40;
39955;PMS5003;25631;51.516;-0.470;2024-01-25T07:00:53;41;39;
39955;PMS5003;25631;51.516;-0.470;2024-01-25T07:03:29;41;40;
39955;PMS5003;25631;51.516;-0.470;2024-01-25T07:06:06;40;39;
39955;PMS5003;25631;51.516;-0.470;2024-01-25T07:08:42;39;37;
39955;PMS5003;25631;51.516;-0.470;2024-01-25T07:11:19;42;37;
39955;PMS5003;25631;51.516;-0.470;2024-01-25T07:13:55;46;40;
39955;PMS5003;25631;51.516;-0.470;2024-01-25T07:16:32;36;35;
39955;PMS5003;25631;51.516;-0.470;2024-01-25T07:19:09;40;38;
39955;PMS5003;25631;51.516;-0.470;2024-01-25T07:21:45;40;36;
39955;PMS5003;25631;51.516;-0.470;2024-01-25T07:24:22;38;37;
39955;PMS5003;25631;51.516;-0.470;2024-01-25T07:26:58;36;36;
39955;PMS5003;25631;51.516;-0.470;2024-01-25T07:29:35;38;37;
39955;PMS5003;25631;51.516;-0.470;2024-01-25T07:32:11;39;38;
39955;PMS5003;25631;51.516;-0.470;2024-01-25T07:34:48;42;40;
39955;PMS5003;25631;51.516;-0.470;2024-01-25T07:37:25;35;33;
39955;PMS5003;25631;51.516;-0.470;2024-01-25T07:40:01;45;38;
39955;PMS5003;25631;51.516;-0.470;2024-01-25T07:42:38;45;39;
39955;PMS5003;25631;51.516;-0.470;2024-01-25T07:45:15;44;43;
39955;PMS5003;25631;51.516;-0.470;2024-01-25T07:47:51;42;41;
39955;PMS5003;25631;51.516;-0.470;2024-01-25T07:50:28;40;38;
39955;PMS5003;25631;51.516;-0.470;2024-01-25T07:53:05;37;35;
39955;PMS5003;25631;51.516;-0.470;2024-01-25T07:55:41;37;34;
39955;PMS5003;25631;51.516;-0.470;2024-01-25T07:58:18;47;44;
39955;PMS5003;25631;51.516;-0.470;2024-01-25T08:00:54;45;42;
39955;PMS5003;25631;51.516;-0.470;2024-01-25T08:03:31;48;44;
39955;PMS5003;25631;51.516;-0.470;2024-01-25T08:06:07;49;45;
39955;PMS5003;25631;51.516;-0.470;2024-01-25T08:08:44;49;44;
39955;PMS5003;25631;51.516;-0.470;2024-01-25T08:11:20;48;44;
39955;PMS5003;25631;51.516;-0.470;2024-01-25T08:13:57;47;43;
39955;PMS5003;25631;51.516;-0.470;2024-01-25T08:16:34;49;45;
39955;PMS5003;25631;51.516;-0.470;2024-01-25T08:19:10;42;38;
39955;PMS5003;25631;51.516;-0.470;2024-01-25T08:21:47;42;38;
39955;PMS5003;25631;51.516;-0.470;2024-01-25T08:24:23;54;48;
39955;PMS5003;25631;51.516;-0.470;2024-01-25T08:27:00;59;51;
39955;PMS5003;25631;51.516;-0.470;2024-01-25T08:29:36;53;47;
39955;PMS5003;25631;51.516;-0.470;2024-01-25T08:32:13;51;47;
39955;PMS5003;25631;51.516;-0.470;2024-01-25T08:34:49;50;47;
39955;PMS5003;25631;51.516;-0.470;2024-01-25T08:37:25;43;41;
39955;PMS5003;25631;51.516;-0.470;2024-01-25T08:40:02;49;43;
39955;PMS5003;25631;51.516;-0.470;2024-01-25T08:42:39;50;43;
39955;PMS5003;25631;51.516;-0.470;2024-01-25T08:45:15;50;45;
39955;PMS5003;25631;51.516;-0.470;2024-01-25T08:47:51;53;47;
39955;PMS5003;25631;51.516;-0.470;2024-01-25T08:50:28;53;49;
39955;PMS5003;25631;51.516;-0.470;2024-01-25T08:53:05;45;42;
39955;PMS5003;25631;51.516;-0.470;2024-01-25T08:55:41;50;47;
39955;PMS5003;25631;51.516;-0.470;2024-01-25T08:58:18;42;38;
39955;PMS5003;25631;51.516;-0.470;2024-01-25T09:00:54;38;35;
39955;PMS5003;25631;51.516;-0.470;2024-01-25T09:03:31;37;36;
39955;PMS5003;25631;51.516;-0.470;2024-01-25T09:06:07;44;41;
39955;PMS5003;25631;51.516;-0.470;2024-01-25T09:08:44;43;40;
39955;PMS5003;25631;51.516;-0.470;2024-01-25T09:11:20;53;46;
39955;PMS5003;25631;51.516;-0.470;2024-01-25T09:13:57;52;46;
39955;PMS5003;25631;51.516;-0.470;2024-01-25T09:16:33;52;45;
39955;PMS5003;25631;51.516;-0.470;2024-01-25T09:19:10;42;37;
39955;PMS5003;25631;51.516;-0.470;2024-01-25T09:21:46;40;36;
39955;PMS5003;25631;51.516;-0.470;2024-01-25T09:24:22;40;36;
39955;PMS5003;25631;51.516;-0.470;2024-01-25T09:26:59;41;38;
39955;PMS5003;25631;51.516;-0.470;2024-01-25T09:29:36;43;42;
39955;PMS5003;25631;51.516;-0.470;2024-01-25T09:32:13;43;39;
39955;PMS5003;25631;51.516;-0.470;2024-01-25T09:34:49;46;42;
39955;PMS5003;25631;51.516;-0.470;2024-01-25T09:37:25;44;42;
39955;PMS5003;25631;51.516;-0.470;2024-01-25T09:40:02;42;41;
39955;PMS5003;25631;51.516;-0.470;2024-01-25T09:42:39;40;39;
39955;PMS5003;25631;51.516;-0.470;2024-01-25T09:45:16;49;39;
39955;PMS5003;25631;51.516;-0.470;2024-01-25T09:47:53;45;39;
39955;PMS5003;25631;51.516;-0.470;2024-01-25T09:50:29;43;37;
39955;PMS5003;25631;51.516;-0.470;2024-01-25T09:53:06;48;46;
39955;PMS5003;25631;51.516;-0.470;2024-01-25T09:55:46;44;42;
39955;PMS5003;25631;51.516;-0.470;2024-01-25T09:58:35;54;51;
39955;PMS5003;25631;51.516;-0.470;2024-01-25T10:01:14;54;49;
39955;PMS5003;25631;51.516;-0.470;2024-01-25T10:03:51;55;48;
39955;PMS5003;25631;51.516;-0.470;2024-01-25T10:06:27;43;39;
39955;PMS5003;25631;51.516;-0.470;2024-01-25T10:09:04;49;45;
39955;PMS5003;25631;51.516;-0.470;2024-01-25T10:11:41;51;47;
39955;PMS5003;25631;51.516;-0.470;2024-01-25T10:14:17;48;45;
39955;PMS5003;25631;51.516;-0.470;2024-01-25T10:16:54;48;45;
39955;PMS5003;25631;51.516;-0.470;2024-01-25T10:19:30;47;43;
39955;PMS5003;25631;51.516;-0.470;2024-01-25T10:22:07;49;43;
39955;PMS5003;25631;51.516;-0.470;2024-01-25T10:24:43;42;36;
39955;PMS5003;25631;51.516;-0.470;2024-01-25T10:27:19;48;41;
39955;PMS5003;25631;51.516;-0.470;2024-01-25T10:29:57;46;39;
39955;PMS5003;25631;51.516;-0.470;2024-01-25T10:32:34;50;43;
39955;PMS5003;25631;51.516;-0.470;2024-01-25T10:35:11;47;39;
39955;PMS5003;25631;51.516;-0.470;2024-01-25T10:37:48;47;40;
39955;PMS5003;25631;51.516;-0.470;2024-01-25T10:40:26;51;46;
39955;PMS5003;25631;51.516;-0.470;2024-01-25T10:43:04;48;45;
39955;PMS5003;25631;51.516;-0.470;2024-01-25T10:45:40;54;51;
39955;PMS5003;25631;51.516;-0.470;2024-01-25T10:48:17;53;46;
39955;PMS5003;25631;51.516;-0.470;2024-01-25T10:50:54;53;47;
39955;PMS5003;25631;51.516;-0.470;2024-01-25T10:53:32;47;45;
39955;PMS5003;25631;51.516;-0.470;2024-01-25T10:56:09;46;43;
39955;PMS5003;25631;51.516;-0.470;2024-01-25T10:58:46;50;44;
39955;PMS5003;25631;51.516;-0.470;2024-01-25T11:01:22;52;49;
39955;PMS5003;25631;51.516;-0.470;2024-01-25T11:03:59;50;48;
39955;PMS5003;25631;51.516;-0.470;2024-01-25T11:06:36;52;46;
39955;PMS5003;25631;51.516;-0.470;2024-01-25T11:09:16;53;48;
39955;PMS5003;25631;51.516;-0.470;2024-01-25T11:11:54;50;48;
39955;PMS5003;25631;51.516;-0.470;2024-01-25T11:14:30;51;45;
39955;PMS5003;25631;51.516;-0.470;2024-01-25T11:17:22;47;41;
39955;PMS5003;25631;51.516;-0.470;2024-01-25T11:19:59;45;43;
39955;PMS5003;25631;51.516;-0.470;2024-01-25T11:22:36;43;41;
39955;PMS5003;25631;51.516;-0.470;2024-01-25T11:25:13;43;40;
39955;PMS5003;25631;51.516;-0.470;2024-01-25T11:27:55;45;44;
39955;PMS5003;25631;51.516;-0.470;2024-01-25T11:30:32;44;43;
39955;PMS5003;25631;51.516;-0.470;2024-01-25T11:33:10;40;37;
39955;PMS5003;25631;51.516;-0.470;2024-01-25T11:35:53;39;36;
39955;PMS5003;25631;51.516;-0.470;2024-01-25T11:38:30;40;38;
39955;PMS5003;25631;51.516;-0.470;2024-01-25T11:41:07;44;40;
39955;PMS5003;25631;51.516;-0.470;2024-01-25T11:43:43;39;35;
39955;PMS5003;25631;51.516;-0.470;2024-01-25T11:46:21;45;43;
39955;PMS5003;25631;51.516;-0.470;2024-01-25T11:48:58;50;47;
39955;PMS5003;25631;51.516;-0.470;2024-01-25T11:51:34;47;45;
39955;PMS5003;25631;51.516;-0.470;2024-01-25T11:54:11;49;47;
39955;PMS5003;25631;51.516;-0.470;2024-01-25T11:56:47;47;45;
39955;PMS5003;25631;51.516;-0.470;2024-01-25T11:59:24;41;39;
39955;PMS5003;25631;51.516;-0.470;2024-01-25T12:02:01;38;37;
39955;PMS5003;25631;51.516;-0.470;2024-01-25T12:04:39;38;38;
39955;PMS5003;25631;51.516;-0.470;2024-01-25T12:07:15;45;40;
39955;PMS5003;25631;51.516;-0.470;2024-01-25T12:10:01;47;42;
39955;PMS5003;25631;51.516;-0.470;2024-01-25T12:12:39;43;41;
39955;PMS5003;25631;51.516;-0.470;2024-01-25T12:15:15;40;38;
39955;PMS5003;25631;51.516;-0.470;2024-01-25T12:17:51;38;38;
39955;PMS5003;25631;51.516;-0.470;2024-01-25T12:20:30;44;40;
39955;PMS5003;25631;51.516;-0.470;2024-01-25T12:23:06;42;38;
39955;PMS5003;25631;51.516;-0.470;2024-01-25T12:25:45;43;39;
39955;PMS5003;25631;51.516;-0.470;2024-01-25T12:28:21;47;40;
39955;PMS5003;25631;51.516;-0.470;2024-01-25T12:30:58;49;43;
39955;PMS5003;25631;51.516;-0.470;2024-01-25T12:33:35;43;41;
39955;PMS5003;25631;51.516;-0.470;2024-01-25T12:36:11;35;34;
39955;PMS5003;25631;51.516;-0.470;2024-01-25T12:38:48;46;45;
39955;PMS5003;25631;51.516;-0.470;2024-01-25T12:41:24;44;41;
39955;PMS5003;25631;51.516;-0.470;2024-01-25T12:44:01;45;41;
39955;PMS5003;25631;51.516;-0.470;2024-01-25T12:46:37;45;39;
39955;PMS5003;25631;51.516;-0.470;2024-01-25T12:49:14;41;39;
39955;PMS5003;25631;51.516;-0.470;2024-01-25T12:51:50;37;36;
39955;PMS5003;25631;51.516;-0.470;2024-01-25T12:54:27;44;43;
39955;PMS5003;25631;51.516;-0.470;2024-01-25T12:57:03;46;43;
39955;PMS5003;25631;51.516;-0.470;2024-01-25T12:59:40;44;43;
39955;PMS5003;25631;51.516;-0.470;2024-01-25T13:02:17;37;36;
39955;PMS5003;25631;51.516;-0.470;2024-01-25T13:04:53;33;32;
39955;PMS5003;25631;51.516;-0.470;2024-01-25T13:07:30;32;31;
39955;PMS5003;25631;51.516;-0.470;2024-01-25T13:10:08;38;36;
39955;PMS5003;25631;51.516;-0.470;2024-01-25T13:12:44;36;36;
39955;PMS5003;25631;51.516;-0.470;2024-01-25T13:15:21;45;42;
39955;PMS5003;25631;51.516;-0.470;2024-01-25T13:17:57;42;41;
39955;PMS5003;25631;51.516;-0.470;2024-01-25T13:20:34;42;38;
39955;PMS5003;25631;51.516;-0.470;2024-01-25T13:23:10;34;31;
39955;PMS5003;25631;51.516;-0.470;2024-01-25T13:25:47;35;33;
39955;PMS5003;25631;51.516;-0.470;2024-01-25T13:28:23;34;34;
39955;PMS5003;25631;51.516;-0.470;2024-01-25T13:31:00;34;33;
39955;PMS5003;25631;51.516;-0.470;2024-01-25T13:33:36;35;33;
39955;PMS5003;25631;51.516;-0.470;2024-01-25T13:36:12;36;35;
39955;PMS5003;25631;51.516;-0.470;2024-01-25T13:38:49;34;34;
39955;PMS5003;25631;51.516;-0.470;2024-01-25T13:41:26;32;29;
39955;PMS5003;25631;51.516;-0.470;2024-01-25T13:44:03;33;31;
39955;PMS5003;25631;51.516;-0.470;2024-01-25T13:46:39;35;33;
39955;PMS5003;25631;51.516;-0.470;2024-01-25T13:49:16;38;36;
39955;PMS5003;25631;51.516;-0.470;2024-01-25T13:51:52;40;37;
39955;PMS5003;25631;51.516;-0.470;2024-01-25T13:54:29;35;32;
39955;PMS5003;25631;51.516;-0.470;2024-01-25T13:57:05;35;32;
39955;PMS5003;25631;51.516;-0.470;2024-01-25T13:59:41;33;29;
39955;PMS5003;25631;51.516;-0.470;2024-01-25T14:02:18;50;48;
39955;PMS5003;25631;51.516;-0.470;2024-01-25T14:04:55;53;52;
39955;PMS5003;25631;51.516;-0.470;2024-01-25T14:07:31;53;51;
39955;PMS5003;25631;51.516;-0.470;2024-01-25T14:10:08;34;33;
39955;PMS5003;25631;51.516;-0.470;2024-01-25T14:12:45;46;42;
39955;PMS5003;25631;51.516;-0.470;2024-01-25T14:15:22;32;31;
39955;PMS5003;25631;51.516;-0.470;2024-01-25T14:17:59;34;31;
39955;PMS5003;25631;51.516;-0.470;2024-01-25T14:20:35;36;31;
39955;PMS5003;25631;51.516;-0.470;2024-01-25T14:23:12;28;26;
39955;PMS5003;25631;51.516;-0.470;2024-01-25T14:25:49;28;25;
39955;PMS5003;25631;51.516;-0.470;2024-01-25T14:28:25;29;26;
39955;PMS5003;25631;51.516;-0.470;2024-01-25T14:31:02;28;27;
39955;PMS5003;25631;51.516;-0.470;2024-01-25T14:33:38;28;26;
39955;PMS5003;25631;51.516;-0.470;2024-01-25T14:36:15;31;30;
39955;PMS5003;25631;51.516;-0.470;2024-01-25T14:38:51;36;35;
39955;PMS5003;25631;51.516;-0.470;2024-01-25T14:41:28;37;35;
39955;PMS5003;25631;51.516;-0.470;2024-01-25T14:44:04;28;24;
39955;PMS5003;25631;51.516;-0.470;2024-01-25T14:46:41;30;26;
39955;PMS5003;25631;51.516;-0.470;2024-01-25T14:49:17;25;25;
39955;PMS5003;25631;51.516;-0.470;2024-01-25T14:51:53;25;25;
39955;PMS5003;25631;51.516;-0.470;2024-01-25T14:54:30;27;26;
39955;PMS5003;25631;51.516;-0.470;2024-01-25T14:57:07;30;28;
39955;PMS5003;25631;51.516;-0.470;2024-01-25T14:59:44;30;29;
39955;PMS5003;25631;51.516;-0.470;2024-01-25T15:02:21;29;28;
39955;PMS5003;25631;51.516;-0.470;2024-01-25T15:04:58;25;24;
39955;PMS5003;25631;51.516;-0.470;2024-01-25T15:07:35;25;23;
39955;PMS5003;25631;51.516;-0.470;2024-01-25T15:10:11;24;21;
39955;PMS5003;25631;51.516;-0.470;2024-01-25T15:12:47;24;21;
39955;PMS5003;25631;51.516;-0.470;2024-01-25T15:15:24;25;23;
39955;PMS5003;25631;51.516;-0.470;2024-01-25T15:18:00;30;26;
39955;PMS5003;25631;51.516;-0.470;2024-01-25T15:20:37;30;25;
39955;PMS5003;25631;51.516;-0.470;2024-01-25T15:23:13;27;25;
39955;PMS5003;25631;51.516;-0.470;2024-01-25T15:25:50;27;25;
39955;PMS5003;25631;51.516;-0.470;2024-01-25T15:28:26;25;24;
39955;PMS5003;25631;51.516;-0.470;2024-01-25T15:31:03;21;20;
39955;PMS5003;25631;51.516;-0.470;2024-01-25T15:33:39;23;22;
39955;PMS5003;25631;51.516;-0.470;2024-01-25T15:36:16;30;27;
39955;PMS5003;25631;51.516;-0.470;2024-01-25T15:38:52;23;21;
39955;PMS5003;25631;51.516;-0.470;2024-01-25T15:41:29;24;22;
39955;PMS5003;25631;51.516;-0.470;2024-01-25T15:44:05;26;25;
39955;PMS5003;25631;51.516;-0.470;2024-01-25T15:46:42;26;25;
39955;PMS5003;25631;51.516;-0.470;2024-01-25T15:49:19;25;24;
39955;PMS5003;25631;51.516;-0.470;2024-01-25T15:51:55;25;22;
39955;PMS5003;25631;51.516;-0.470;2024-01-25T15:54:32;23;21;
39955;PMS5003;25631;51.516;-0.470;2024-01-25T15:57:08;23;23;
39955;PMS5003;25631;51.516;-0.470;2024-01-25T15:59:45;24;23;
39955;PMS5003;25631;51.516;-0.470;2024-01-25T16:02:21;21;20;
39955;PMS5003;25631;51.516;-0.470;2024-01-25T16:04:58;26;25;
39955;PMS5003;25631;51.516;-0.470;2024-01-25T16:07:34;25;25;
39955;PMS5003;25631;51.516;-0.470;2024-01-25T16:10:10;26;25;
39955;PMS5003;25631;51.516;-0.470;2024-01-25T16:12:47;25;25;
39955;PMS5003;25631;51.516;-0.470;2024-01-25T16:15:23;25;25;
39955;PMS5003;25631;51.516;-0.470;2024-01-25T16:18:00;32;32;
39955;PMS5003;25631;51.516;-0.470;2024-01-25T16:20:36;35;34;
39955;PMS5003;25631;51.516;-0.470;2024-01-25T16:23:13;38;37;
39955;PMS5003;25631;51.516;-0.470;2024-01-25T16:25:50;25;22;
39955;PMS5003;25631;51.516;-0.470;2024-01-25T16:28:26;26;24;
39955;PMS5003;25631;51.516;-0.470;2024-01-25T16:31:02;24;22;
39955;PMS5003;25631;51.516;-0.470;2024-01-25T16:33:39;24;22;
39955;PMS5003;25631;51.516;-0.470;2024-01-25T16:36:16;21;19;
39955;PMS5003;25631;51.516;-0.470;2024-01-25T16:38:53;29;26;
39955;PMS5003;25631;51.516;-0.470;2024-01-25T16:41:30;26;24;
39955;PMS5003;25631;51.516;-0.470;2024-01-25T16:44:06;26;23;
39955;PMS5003;25631;51.516;-0.470;2024-01-25T16:46:42;36;34;
39955;PMS5003;25631;51.516;-0.470;2024-01-25T16:49:19;36;34;
39955;PMS5003;25631;51.516;-0.470;2024-01-25T16:51:55;26;23;
39955;PMS5003;25631;51.516;-0.470;2024-01-25T16:54:32;28;25;
39955;PMS5003;25631;51.516;-0.470;2024-01-25T16:57:08;29;27;
39955;PMS5003;25631;51.516;-0.470;2024-01-25T16:59:45;29;27;
39955;PMS5003;25631;51.516;-0.470;2024-01-25T17:02:21;26;25;